Blue Bay — V2CE6 — position and weather

sailwx.info

Track history (hours):
 
Tides and Currents Weather Stations Pressure Air Temp Water Temp Dewpoint Dewpoint Depression Visibility Wind Speed Wind Dir Waves Ship Positions

Blue Bay

Last reported at 2014-Nov-20 00:22 UTC. Time now 2014-Nov-23 16:13 UTC.
Position N 38°37' W 009°24'.

Length 89 m; draft 3.5 m.

Type: Cargo ship. MMSI: 304519000.

Date/timePositionNaut miles runAvg speedWind from/ knotsBaromVisibWave heightAir tempDewpointWater temp
2014-Nov-20 00:22N 38°37' W 009°24'8 9.3
2014-Nov-19 23:34N 38°41' W 009°17'9 9.1
2014-Nov-19 22:34N 38°40' W 009°05'0 0.5
2014-Nov-19 21:31N 38°40' W 009°04'0 0.0
2014-Nov-19 20:31N 38°40' W 009°04'0 0.0
2014-Nov-19 19:31N 38°40' W 009°04'0 0.0
2014-Nov-19 18:31N 38°40' W 009°04'0 0.0
2014-Nov-19 17:31N 38°40' W 009°04'0 0.0
2014-Nov-19 16:31N 38°40' W 009°04'0 0.0
2014-Nov-19 15:28N 38°40' W 009°04'0 0.0
2014-Nov-19 14:31N 38°40' W 009°04'0 0.0
2014-Nov-19 13:31N 38°40' W 009°04'0 0.0
2014-Nov-19 12:31N 38°40' W 009°04'0 0.0
2014-Nov-19 11:31N 38°40' W 009°04'0 0.0
2014-Nov-19 10:31N 38°40' W 009°04'0 0.0
2014-Nov-19 09:31N 38°40' W 009°04'0 0.0
2014-Nov-19 08:28N 38°40' W 009°04'0 0.0
2014-Nov-19 07:31N 38°40' W 009°04'0 0.0
2014-Nov-19 06:31N 38°40' W 009°04'0 0.0
2014-Nov-19 05:31N 38°40' W 009°04'0 0.0
2014-Nov-19 04:31N 38°40' W 009°04'0 0.0
2014-Nov-19 03:31N 38°40' W 009°04'0 0.0
2014-Nov-19 02:31N 38°40' W 009°04'0 0.0
2014-Nov-19 01:31N 38°40' W 009°04'0 0.0
2014-Nov-19 00:31N 38°40' W 009°04'5 5.1
2014-Nov-18 23:33N 38°41' W 009°10'9 9.5
2014-Nov-18 22:33N 38°38' W 009°22'3 0.2
2014-Nov-18 04:17N 38°41' W 009°24'0 0.0
2014-Nov-18 02:14N 38°41' W 009°24'  
2014-Nov-14 11:31N 38°41' W 009°24'  
2014-Nov-10 07:04N 50°31' W 005°42'4 8.1
2014-Nov-10 06:31N 50°34' W 005°37'8 7.8
2014-Nov-10 05:33N 50°39' W 005°28'8 7.9
2014-Nov-10 04:33N 50°44' W 005°19'  
Track history (hours):
 
Tides and Currents Weather Stations Pressure Air Temp Water Temp Dewpoint Dewpoint Depression Visibility Wind Speed Wind Dir Waves Ship Positions

Blue Bay

Last reported at 2014-Nov-20 00:22 UTC. Time now 2014-Nov-23 16:13 UTC.
Position N 38°37' W 009°24'.

Length 89 m; draft 3.5 m.

Type: Cargo ship. MMSI: 304519000.

Date/timePositionNaut miles runAvg speedWind from/ knotsBaromVisibWave heightAir tempDewpointWater temp
2014-Nov-20 00:22N 38°37' W 009°24'8 9.3
2014-Nov-19 23:34N 38°41' W 009°17'9 9.1
2014-Nov-19 22:34N 38°40' W 009°05'0 0.5
2014-Nov-19 21:31N 38°40' W 009°04'0 0.0
2014-Nov-19 20:31N 38°40' W 009°04'0 0.0
2014-Nov-19 19:31N 38°40' W 009°04'0 0.0
2014-Nov-19 18:31N 38°40' W 009°04'0 0.0
2014-Nov-19 17:31N 38°40' W 009°04'0 0.0
2014-Nov-19 16:31N 38°40' W 009°04'0 0.0
2014-Nov-19 15:28N 38°40' W 009°04'0 0.0
2014-Nov-19 14:31N 38°40' W 009°04'0 0.0
2014-Nov-19 13:31N 38°40' W 009°04'0 0.0
2014-Nov-19 12:31N 38°40' W 009°04'0 0.0
2014-Nov-19 11:31N 38°40' W 009°04'0 0.0
2014-Nov-19 10:31N 38°40' W 009°04'0 0.0
2014-Nov-19 09:31N 38°40' W 009°04'0 0.0
2014-Nov-19 08:28N 38°40' W 009°04'0 0.0
2014-Nov-19 07:31N 38°40' W 009°04'0 0.0
2014-Nov-19 06:31N 38°40' W 009°04'0 0.0
2014-Nov-19 05:31N 38°40' W 009°04'0 0.0
2014-Nov-19 04:31N 38°40' W 009°04'0 0.0
2014-Nov-19 03:31N 38°40' W 009°04'0 0.0
2014-Nov-19 02:31N 38°40' W 009°04'0 0.0
2014-Nov-19 01:31N 38°40' W 009°04'0 0.0
2014-Nov-19 00:31N 38°40' W 009°04'5 5.1
2014-Nov-18 23:33N 38°41' W 009°10'9 9.5
2014-Nov-18 22:33N 38°38' W 009°22'3 0.2
2014-Nov-18 04:17N 38°41' W 009°24'0 0.0
2014-Nov-18 02:14N 38°41' W 009°24'  
2014-Nov-14 11:31N 38°41' W 009°24'  
2014-Nov-10 07:04N 50°31' W 005°42'4 8.1
2014-Nov-10 06:31N 50°34' W 005°37'8 7.8
2014-Nov-10 05:33N 50°39' W 005°28'8 7.9
2014-Nov-10 04:33N 50°44' W 005°19'  

Dump ship's entire track history